Time,TemperatureF,DewpointF,PressureIn,WindDirection,WindDirectionDegrees,WindSpeedMPH,WindSpeedGustMPH,Humidity,HourlyPrecipIn,Conditions,Clouds,dailyrainin,SoftwareType,DateUTC
2013-02-23 00:01:00,72.0,-99.9,30.14,NE,45,5.0,9.0,-999,-99.99,,,-99.99,,2013-02-23 10:01:00,
2013-02-23 00:11:00,72.0,-99.9,30.13,ENE,66,6.0,19.0,-999,-99.99,,,-99.99,,2013-02-23 10:11:00,
2013-02-23 00:21:00,72.0,-99.9,30.13,East,80,5.0,13.0,-999,-99.99,,,-99.99,,2013-02-23 10:21:00,
2013-02-23 00:32:00,72.0,-99.9,30.13,East,80,3.0,9.0,-999,-99.99,,,-99.99,,2013-02-23 10:32:00,
2013-02-23 00:42:00,72.0,-99.9,30.13,ESE,109,6.0,12.0,-999,-99.99,,,-99.99,,2013-02-23 10:42:00,
2013-02-23 00:52:00,72.0,-99.9,30.13,East,84,1.0,7.0,-999,-99.99,,,-99.99,,2013-02-23 10:52:00,
2013-02-23 01:02:00,72.0,-99.9,30.13,East,101,4.0,9.0,-999,-99.99,,,-99.99,,2013-02-23 11:02:00,
2013-02-23 01:11:00,72.0,-99.9,30.12,NE,47,6.0,10.0,-999,-99.99,,,-99.99,,2013-02-23 11:11:00,
2013-02-23 01:22:00,71.0,-99.9,30.12,East,80,4.0,10.0,-999,-99.99,,,-99.99,,2013-02-23 11:22:00,
2013-02-23 01:32:00,71.0,-99.9,30.12,East,101,4.0,11.0,-999,-99.99,,,-99.99,,2013-02-23 11:32:00,
2013-02-23 01:42:00,71.0,-99.9,30.12,ENE,60,5.0,9.0,-999,-99.99,,,-99.99,,2013-02-23 11:42:00,
2013-02-23 01:53:00,71.0,-99.9,30.11,ENE,77,3.0,9.0,-999,-99.99,,,-99.99,,2013-02-23 11:53:00,
2013-02-23 02:02:00,72.0,-99.9,30.11,NE,47,6.0,10.0,-999,-99.99,,,-99.99,,2013-02-23 12:02:00,
2013-02-23 02:11:00,72.0,-99.9,30.10,East,91,6.0,12.0,-999,-99.99,,,-99.99,,2013-02-23 12:11:00,
2013-02-23 02:22:00,72.0,-99.9,30.10,ENE,66,4.0,9.0,-999,-99.99,,,-99.99,,2013-02-23 12:22:00,
2013-02-23 02:32:00,72.0,-99.9,30.10,East,87,4.0,9.0,-999,-99.99,,,-99.99,,2013-02-23 12:32:00,
2013-02-23 02:42:00,72.0,-99.9,30.09,East,80,6.0,13.0,-999,-99.99,,,-99.99,,2013-02-23 12:42:00,
2013-02-23 02:53:00,72.0,-99.9,30.09,East,90,4.0,11.0,-999,-99.99,,,-99.99,,2013-02-23 12:53:00,
2013-02-23 03:02:00,72.0,-99.9,30.09,East,92,4.0,10.0,-999,-99.99,,,-99.99,,2013-02-23 13:02:00,
2013-02-23 03:12:00,72.0,-99.9,30.09,ENE,68,3.0,10.0,-999,-99.99,,,-99.99,,2013-02-23 13:12:00,
2013-02-23 03:22:00,72.0,-99.9,30.09,NE,54,4.0,9.0,-999,-99.99,,,-99.99,,2013-02-23 13:22:00,
2013-02-23 03:32:00,72.0,-99.9,30.08,ENE,65,4.0,11.0,-999,-99.99,,,-99.99,,2013-02-23 13:32:00,
2013-02-23 03:42:00,72.0,-99.9,30.08,ENE,72,4.0,12.0,-999,-99.99,,,-99.99,,2013-02-23 13:42:00,
2013-02-23 03:52:00,72.0,-99.9,30.08,East,85,7.0,10.0,-999,-99.99,,,-99.99,,2013-02-23 13:52:00,
2013-02-23 04:02:00,72.0,-99.9,30.08,East,86,5.0,14.0,-999,-99.99,,,-99.99,,2013-02-23 14:02:00,
2013-02-23 04:11:00,72.0,-99.9,30.08,ENE,78,7.0,14.0,-999,-99.99,,,-99.99,,2013-02-23 14:11:00,
2013-02-23 04:22:00,72.0,-99.9,30.07,ESE,108,7.0,13.0,-999,-99.99,,,-99.99,,2013-02-23 14:22:00,
2013-02-23 04:33:00,72.0,-99.9,30.08,ENE,67,4.0,16.0,-999,-99.99,,,-99.99,,2013-02-23 14:33:00,
2013-02-23 04:42:00,72.0,-99.9,30.07,East,90,6.0,11.0,-999,-99.99,,,-99.99,,2013-02-23 14:42:00,
2013-02-23 04:52:00,72.0,-99.9,30.07,East,81,5.0,12.0,-999,-99.99,,,-99.99,,2013-02-23 14:52:00,
2013-02-23 05:02:00,72.0,-99.9,30.08,ESE,108,9.0,16.0,-999,-99.99,,,-99.99,,2013-02-23 15:02:00,
2013-02-23 05:11:00,72.0,-99.9,30.08,ESE,103,7.0,14.0,-999,-99.99,,,-99.99,,2013-02-23 15:11:00,
2013-02-23 05:22:00,72.0,-99.9,30.08,NE,52,9.0,16.0,-999,-99.99,,,-99.99,,2013-02-23 15:22:00,
2013-02-23 05:32:00,72.0,-99.9,30.08,NE,55,4.0,9.0,-999,-99.99,,,-99.99,,2013-02-23 15:32:00,
2013-02-23 05:42:00,72.0,-99.9,30.08,NNE,29,4.0,11.0,-999,-99.99,,,-99.99,,2013-02-23 15:42:00,
2013-02-23 05:52:00,72.0,-99.9,30.08,NE,50,6.0,12.0,-999,-99.99,,,-99.99,,2013-02-23 15:52:00,
2013-02-23 06:01:00,72.0,-99.9,30.08,NE,45,5.0,7.0,-999,-99.99,,,-99.99,,2013-02-23 16:01:00,
2013-02-23 06:11:00,71.0,-99.9,30.08,NE,52,6.0,12.0,-999,-99.99,,,-99.99,,2013-02-23 16:11:00,
2013-02-23 06:22:00,71.0,-99.9,30.09,NE,41,6.0,12.0,-999,-99.99,,,-99.99,,2013-02-23 16:22:00,
2013-02-23 06:32:00,71.0,-99.9,30.09,ENE,65,5.0,10.0,-999,-99.99,,,-99.99,,2013-02-23 16:32:00,
2013-02-23 06:42:00,71.0,-99.9,30.09,East,84,3.0,9.0,-999,-99.99,,,-99.99,,2013-02-23 16:42:00,
2013-02-23 06:52:00,72.0,-99.9,30.09,ENE,64,4.0,9.0,-999,-99.99,,,-99.99,,2013-02-23 16:52:00,
2013-02-23 07:01:00,72.0,-99.9,30.10,ENE,67,5.0,8.0,-999,-99.99,,,-99.99,,2013-02-23 17:01:00,
2013-02-23 07:11:00,72.0,-99.9,30.10,NE,53,4.0,7.0,-999,-99.99,,,-99.99,,2013-02-23 17:11:00,
2013-02-23 07:22:00,72.0,-99.9,30.11,ENE,61,3.0,7.0,-999,-99.99,,,-99.99,,2013-02-23 17:22:00,
2013-02-23 07:32:00,72.0,-99.9,30.11,ENE,58,6.0,9.0,-999,-99.99,,,-99.99,,2013-02-23 17:32:00,
2013-02-23 07:42:00,72.0,-99.9,30.11,ENE,57,2.0,5.0,-999,-99.99,,,-99.99,,2013-02-23 17:42:00,
2013-02-23 07:52:00,72.0,-99.9,30.11,ESE,114,3.0,10.0,-999,-99.99,,,-99.99,,2013-02-23 17:52:00,
2013-02-23 08:02:00,72.0,-99.9,30.12,ENE,78,4.0,8.0,-999,-99.99,,,-99.99,,2013-02-23 18:02:00,
2013-02-23 08:12:00,72.0,-99.9,30.12,East,83,3.0,8.0,-999,-99.99,,,-99.99,,2013-02-23 18:12:00,
2013-02-23 08:22:00,72.0,-99.9,30.12,SSE,150,3.0,7.0,-999,-99.99,,,-99.99,,2013-02-23 18:22:00,
2013-02-23 08:32:00,73.0,-99.9,30.13,ESE,102,2.0,9.0,-999,-99.99,,,-99.99,,2013-02-23 18:32:00,
2013-02-23 08:42:00,73.0,-99.9,30.13,SE,145,2.0,6.0,-999,-99.99,,,-99.99,,2013-02-23 18:42:00,
2013-02-23 08:52:00,73.0,-99.9,30.13,SE,134,5.0,10.0,-999,-99.99,,,-99.99,,2013-02-23 18:52:00,
2013-02-23 09:01:00,73.0,-99.9,30.13,South,186,5.0,8.0,-999,-99.99,,,-99.99,,2013-02-23 19:01:00,
2013-02-23 09:11:00,74.0,-99.9,30.14,SSE,158,4.0,8.0,-999,-99.99,,,-99.99,,2013-02-23 19:11:00,
2013-02-23 09:21:00,74.0,-99.9,30.14,ESE,118,5.0,11.0,-999,-99.99,,,-99.99,,2013-02-23 19:21:00,
2013-02-23 09:32:00,74.0,-99.9,30.14,ESE,120,3.0,11.0,-999,-99.99,,,-99.99,,2013-02-23 19:32:00,
2013-02-23 09:42:00,74.0,-99.9,30.14,East,92,7.0,14.0,-999,-99.99,,,-99.99,,2013-02-23 19:42:00,
2013-02-23 09:52:00,75.0,-99.9,30.14,East,98,2.0,12.0,-999,-99.99,,,-99.99,,2013-02-23 19:52:00,
2013-02-23 10:01:00,76.0,-99.9,30.14,SE,124,3.0,9.0,-999,-99.99,,,-99.99,,2013-02-23 20:01:00,
2013-02-23 10:11:00,76.0,-99.9,30.14,SE,135,3.0,5.0,-999,-99.99,,,-99.99,,2013-02-23 20:11:00,
2013-02-23 10:22:00,75.0,-99.9,30.14,East,96,9.0,14.0,-999,-99.99,,,-99.99,,2013-02-23 20:22:00,
2013-02-23 10:32:00,75.0,-99.9,30.14,SE,126,8.0,15.0,-999,-99.99,,,-99.99,,2013-02-23 20:32:00,
2013-02-23 10:42:00,75.0,-99.9,30.14,NE,47,11.0,19.0,-999,-99.99,,,-99.99,,2013-02-23 20:42:00,
2013-02-23 10:53:00,76.0,-99.9,30.13,ESE,120,6.0,17.0,-999,-99.99,,,-99.99,,2013-02-23 20:53:00,
2013-02-23 11:02:00,76.0,-99.9,30.14,ENE,64,8.0,22.0,-999,-99.99,,,-99.99,,2013-02-23 21:02:00,
2013-02-23 11:11:00,76.0,-99.9,30.13,East,101,9.0,21.0,-999,-99.99,,,-99.99,,2013-02-23 21:11:00,
2013-02-23 11:22:00,76.0,-99.9,30.13,East,99,7.0,18.0,-999,-99.99,,,-99.99,,2013-02-23 21:22:00,
2013-02-23 11:32:00,76.0,-99.9,30.13,ENE,63,6.0,14.0,-999,-99.99,,,-99.99,,2013-02-23 21:32:00,
2013-02-23 11:42:00,76.0,-99.9,30.13,ENE,63,9.0,17.0,-999,-99.99,,,-99.99,,2013-02-23 21:42:00,
2013-02-23 11:52:00,76.0,-99.9,30.13,ENE,67,8.0,14.0,-999,-99.99,,,-99.99,,2013-02-23 21:52:00,
2013-02-23 12:02:00,76.0,-99.9,30.12,ENE,67,7.0,16.0,-999,-99.99,,,-99.99,,2013-02-23 22:02:00,
2013-02-23 12:11:00,76.0,-99.9,30.12,ENE,61,10.0,15.0,-999,-99.99,,,-99.99,,2013-02-23 22:11:00,
2013-02-23 12:22:00,76.0,-99.9,30.11,ENE,74,6.0,19.0,-999,-99.99,,,-99.99,,2013-02-23 22:22:00,
2013-02-23 12:32:00,76.0,-99.9,30.11,ENE,64,12.0,22.0,-999,-99.99,,,-99.99,,2013-02-23 22:32:00,
2013-02-23 12:42:00,76.0,-99.9,30.11,ENE,66,6.0,14.0,-999,-99.99,,,-99.99,,2013-02-23 22:42:00,
2013-02-23 12:52:00,77.0,-99.9,30.11,ENE,57,8.0,15.0,-999,-99.99,,,-99.99,,2013-02-23 22:52:00,
2013-02-23 13:01:00,76.0,-99.9,30.10,ENE,67,8.0,17.0,-999,-99.99,,,-99.99,,2013-02-23 23:01:00,
2013-02-23 13:11:00,76.0,-99.9,30.10,NE,39,5.0,17.0,-999,-99.99,,,-99.99,,2013-02-23 23:11:00,
2013-02-23 13:22:00,77.0,-99.9,30.09,East,91,7.0,17.0,-999,-99.99,,,-99.99,,2013-02-23 23:22:00,
2013-02-23 13:32:00,76.0,-99.9,30.09,ESE,113,8.0,19.0,-999,-99.99,,,-99.99,,2013-02-23 23:32:00,
2013-02-23 13:42:00,77.0,-99.9,30.09,East,85,5.0,15.0,-999,-99.99,,,-99.99,,2013-02-23 23:42:00,
2013-02-23 13:52:00,77.0,-99.9,30.08,ESE,106,4.0,11.0,-999,-99.99,,,-99.99,,2013-02-23 23:52:00,
2013-02-23 14:02:00,77.0,-99.9,30.08,ESE,105,8.0,14.0,-999,-99.99,,,-99.99,,2013-02-24 00:02:00,
2013-02-23 14:11:00,76.0,-99.9,30.08,NE,54,8.0,16.0,-999,-99.99,,,-99.99,,2013-02-24 00:11:00,
2013-02-23 14:22:00,76.0,-99.9,30.07,East,100,7.0,15.0,-999,-99.99,,,-99.99,,2013-02-24 00:22:00,
2013-02-23 14:32:00,76.0,-99.9,30.07,ESE,122,9.0,20.0,-999,-99.99,,,-99.99,,2013-02-24 00:32:00,
2013-02-23 14:42:00,76.0,-99.9,30.07,NE,47,6.0,17.0,-999,-99.99,,,-99.99,,2013-02-24 00:42:00,
2013-02-23 14:52:00,76.0,-99.9,30.07,East,81,6.0,16.0,-999,-99.99,,,-99.99,,2013-02-24 00:52:00,
2013-02-23 15:01:00,76.0,-99.9,30.06,NE,44,10.0,16.0,-999,-99.99,,,-99.99,,2013-02-24 01:01:00,
2013-02-23 15:11:00,76.0,-99.9,30.06,ENE,58,6.0,14.0,-999,-99.99,,,-99.99,,2013-02-24 01:11:00,
2013-02-23 15:22:00,76.0,-99.9,30.06,ENE,58,12.0,21.0,-999,-99.99,,,-99.99,,2013-02-24 01:22:00,
2013-02-23 15:32:00,76.0,-99.9,30.06,ENE,61,7.0,18.0,-999,-99.99,,,-99.99,,2013-02-24 01:32:00,
2013-02-23 15:42:00,75.0,-99.9,30.06,NE,45,8.0,17.0,-999,-99.99,,,-99.99,,2013-02-24 01:42:00,
2013-02-23 15:52:00,76.0,-99.9,30.06,NE,40,5.0,15.0,-999,-99.99,,,-99.99,,2013-02-24 01:52:00,
2013-02-23 16:01:00,77.0,-99.9,30.06,East,89,4.0,13.0,-999,-99.99,,,-99.99,,2013-02-24 02:01:00,
2013-02-23 16:11:00,76.0,-99.9,30.06,ESE,113,4.0,12.0,-999,-99.99,,,-99.99,,2013-02-24 02:11:00,
2013-02-23 16:22:00,76.0,-99.9,30.06,East,95,7.0,14.0,-999,-99.99,,,-99.99,,2013-02-24 02:22:00,
2013-02-23 16:32:00,76.0,-99.9,30.06,ENE,73,7.0,16.0,-999,-99.99,,,-99.99,,2013-02-24 02:32:00,
2013-02-23 16:42:00,76.0,-99.9,30.06,ENE,78,6.0,13.0,-999,-99.99,,,-99.99,,2013-02-24 02:42:00,
2013-02-23 16:52:00,76.0,-99.9,30.06,ENE,60,4.0,17.0,-999,-99.99,,,-99.99,,2013-02-24 02:52:00,
2013-02-23 17:02:00,75.0,-99.9,30.07,ENE,77,5.0,10.0,-999,-99.99,,,-99.99,,2013-02-24 03:02:00,
2013-02-23 17:12:00,75.0,-99.9,30.07,East,98,3.0,12.0,-999,-99.99,,,-99.99,,2013-02-24 03:12:00,
2013-02-23 17:22:00,74.0,-99.9,30.07,ENE,68,5.0,10.0,-999,-99.99,,,-99.99,,2013-02-24 03:22:00,
2013-02-23 17:32:00,74.0,-99.9,30.07,ENE,62,4.0,13.0,-999,-99.99,,,-99.99,,2013-02-24 03:32:00,
2013-02-23 17:42:00,74.0,-99.9,30.07,ENE,66,5.0,14.0,-999,-99.99,,,-99.99,,2013-02-24 03:42:00,
2013-02-23 17:52:00,73.0,-99.9,30.07,ENE,72,9.0,15.0,-999,-99.99,,,-99.99,,2013-02-24 03:52:00,
2013-02-23 18:02:00,73.0,-99.9,30.07,ENE,64,6.0,19.0,-999,-99.99,,,-99.99,,2013-02-24 04:02:00,
2013-02-23 18:11:00,73.0,-99.9,30.07,NE,44,6.0,14.0,-999,-99.99,,,-99.99,,2013-02-24 04:11:00,
2013-02-23 18:22:00,73.0,-99.9,30.08,NE,48,9.0,13.0,-999,-99.99,,,-99.99,,2013-02-24 04:22:00,
2013-02-23 18:32:00,73.0,-99.9,30.08,NE,56,5.0,10.0,-999,-99.99,,,-99.99,,2013-02-24 04:32:00,
2013-02-23 18:42:00,73.0,-99.9,30.08,NE,52,7.0,18.0,-999,-99.99,,,-99.99,,2013-02-24 04:42:00,
2013-02-23 18:52:00,73.0,-99.9,30.09,NE,55,8.0,18.0,-999,-99.99,,,-99.99,,2013-02-24 04:52:00,
2013-02-23 19:01:00,72.0,-99.9,30.09,NE,56,9.0,20.0,-999,-99.99,,,-99.99,,2013-02-24 05:01:00,
2013-02-23 19:11:00,72.0,-99.9,30.09,NE,54,9.0,15.0,-999,-99.99,,,-99.99,,2013-02-24 05:11:00,
2013-02-23 19:22:00,72.0,-99.9,30.09,NE,56,5.0,12.0,-999,-99.99,,,-99.99,,2013-02-24 05:22:00,
2013-02-23 19:32:00,71.0,-99.9,30.11,ENE,72,8.0,19.0,-999,-99.99,,,-99.99,,2013-02-24 05:32:00,
2013-02-23 19:42:00,70.0,-99.9,30.10,NE,47,4.0,15.0,-999,-99.99,,,-99.99,,2013-02-24 05:42:00,
2013-02-23 19:52:00,70.0,-99.9,30.11,NE,49,10.0,15.0,-999,-99.99,,,-99.99,,2013-02-24 05:52:00,
2013-02-23 20:02:00,71.0,-99.9,30.11,ESE,111,3.0,13.0,-999,-99.99,,,-99.99,,2013-02-24 06:02:00,
2013-02-23 20:12:00,71.0,-99.9,30.11,ENE,75,4.0,13.0,-999,-99.99,,,-99.99,,2013-02-24 06:12:00,
2013-02-23 20:22:00,71.0,-99.9,30.11,ENE,59,7.0,12.0,-999,-99.99,,,-99.99,,2013-02-24 06:22:00,
2013-02-23 20:32:00,70.0,-99.9,30.11,East,101,4.0,10.0,-999,-99.99,,,-99.99,,2013-02-24 06:32:00,
2013-02-23 20:42:00,71.0,-99.9,30.11,ENE,67,4.0,11.0,-999,-99.99,,,-99.99,,2013-02-24 06:42:00,
2013-02-23 20:52:00,71.0,-99.9,30.12,ESE,106,4.0,11.0,-999,-99.99,,,-99.99,,2013-02-24 06:52:00,
2013-02-23 21:01:00,71.0,-99.9,30.12,East,95,4.0,12.0,-999,-99.99,,,-99.99,,2013-02-24 07:01:00,
2013-02-23 21:12:00,71.0,-99.9,30.13,ENE,59,7.0,13.0,-999,-99.99,,,-99.99,,2013-02-24 07:12:00,
2013-02-23 21:22:00,71.0,-99.9,30.13,ENE,74,6.0,13.0,-999,-99.99,,,-99.99,,2013-02-24 07:22:00,
2013-02-23 21:32:00,71.0,-99.9,30.13,ENE,74,6.0,13.0,-999,-99.99,,,-99.99,,2013-02-24 07:32:00,
2013-02-23 21:42:00,71.0,-99.9,30.13,ENE,74,3.0,13.0,-999,-99.99,,,-99.99,,2013-02-24 07:42:00,
2013-02-23 21:52:00,72.0,-99.9,30.13,East,100,6.0,16.0,-999,-99.99,,,-99.99,,2013-02-24 07:52:00,
2013-02-23 22:01:00,71.0,-99.9,30.13,ESE,108,5.0,11.0,-999,-99.99,,,-99.99,,2013-02-24 08:01:00,
2013-02-23 22:11:00,71.0,-99.9,30.13,East,96,3.0,14.0,-999,-99.99,,,-99.99,,2013-02-24 08:11:00,
2013-02-23 22:22:00,71.0,-99.9,30.13,ENE,73,4.0,10.0,-999,-99.99,,,-99.99,,2013-02-24 08:22:00,
2013-02-23 22:32:00,71.0,-99.9,30.13,ESE,106,6.0,17.0,-999,-99.99,,,-99.99,,2013-02-24 08:32:00,
2013-02-23 22:42:00,71.0,-99.9,30.14,ENE,69,5.0,9.0,-999,-99.99,,,-99.99,,2013-02-24 08:42:00,
2013-02-23 22:54:00,72.0,-99.9,30.14,NE,53,9.0,15.0,-999,-99.99,,,-99.99,,2013-02-24 08:54:00,
2013-02-23 23:02:00,72.0,-99.9,30.14,ENE,59,6.0,17.0,-999,-99.99,,,-99.99,,2013-02-24 09:02:00,
2013-02-23 23:11:00,72.0,-99.9,30.14,East,87,6.0,14.0,-999,-99.99,,,-99.99,,2013-02-24 09:11:00,
2013-02-23 23:22:00,72.0,-99.9,30.14,ENE,58,7.0,13.0,-999,-99.99,,,-99.99,,2013-02-24 09:22:00,
2013-02-23 23:32:00,72.0,-99.9,30.13,ENE,77,4.0,11.0,-999,-99.99,,,-99.99,,2013-02-24 09:32:00,
2013-02-23 23:42:00,72.0,-99.9,30.13,ESE,102,4.0,12.0,-999,-99.99,,,-99.99,,2013-02-24 09:42:00,
2013-02-23 23:52:00,72.0,-99.9,30.13,ESE,110,5.0,17.0,-999,-99.99,,,-99.99,,2013-02-24 09:52:00,